Time;durP1;ratioP1;P1;durP2;ratioP2;P2;SDS_P1;SDS_P2;PMS_P1;PMS_P2;Temp;Humidity;BMP_temperature;BMP_pressure;BME280_temperature;BME280_humidity;BME280_pressure;Samples;Min_cycle;Max_cycle;Signal;HPM_P1;HPM_P2
2022/01/05 00:01:47;;;;;;;2.72;1.20;;;17.60;56.90;;;;;;5050966;28;20187;-59
2022/01/05 00:04:13;;;;;;;1.80;1.10;;;17.60;56.80;;;;;;5051441;28;20171;-57
2022/01/05 00:06:38;;;;;;;2.58;1.13;;;17.50;56.70;;;;;;5050374;28;20530;-57
2022/01/05 00:09:04;;;;;;;2.63;0.90;;;17.60;56.80;;;;;;5051268;28;20700;-58
2022/01/05 00:11:29;;;;;;;1.52;1.10;;;17.50;56.80;;;;;;5051050;28;20198;-58
2022/01/05 00:13:56;;;;;;;1.33;1.00;;;17.50;56.90;;;;;;5052487;28;20256;-58
2022/01/05 00:16:22;;;;;;;1.48;1.05;;;17.50;56.80;;;;;;5055293;28;20202;-59
2022/01/05 00:18:47;;;;;;;1.30;1.20;;;17.50;56.90;;;;;;5055698;28;20246;-57
2022/01/05 00:21:13;;;;;;;1.77;1.20;;;17.50;56.80;;;;;;5054660;28;20201;-61
2022/01/05 00:23:38;;;;;;;1.40;0.98;;;17.50;56.80;;;;;;5054972;28;20673;-58
2022/01/05 00:26:04;;;;;;;3.95;1.38;;;17.40;56.80;;;;;;5055205;28;20178;-59
2022/01/05 00:28:30;;;;;;;1.15;0.98;;;17.50;56.90;;;;;;5054213;28;20219;-59
2022/01/05 00:30:56;;;;;;;2.10;1.45;;;17.40;56.80;;;;;;5055272;28;20228;-58
2022/01/05 00:33:21;;;;;;;1.60;0.90;;;17.40;56.70;;;;;;5054920;28;20262;-59
2022/01/05 00:35:47;;;;;;;3.05;1.13;;;17.40;56.60;;;;;;5054437;28;20269;-58
2022/01/05 00:38:12;;;;;;;3.08;1.10;;;17.40;56.60;;;;;;5055212;28;20187;-58
2022/01/05 00:40:38;;;;;;;2.03;1.20;;;17.40;56.60;;;;;;5054604;28;20191;-59
2022/01/05 00:43:03;;;;;;;2.15;1.10;;;17.40;56.70;;;;;;5054399;28;20291;-58
2022/01/05 00:45:29;;;;;;;2.60;1.10;;;17.30;56.60;;;;;;5054860;28;20178;-58
2022/01/05 00:47:54;;;;;;;1.35;1.00;;;17.40;56.50;;;;;;5054932;28;20211;-58
2022/01/05 00:50:20;;;;;;;4.18;1.42;;;17.30;56.40;;;;;;5053589;28;20223;-59
2022/01/05 00:52:45;;;;;;;2.05;1.10;;;17.30;56.40;;;;;;5054827;28;20202;-58
2022/01/05 00:55:11;;;;;;;2.72;1.40;;;17.30;56.40;;;;;;5054605;28;20571;-59
2022/01/05 00:57:36;;;;;;;2.50;1.02;;;17.30;56.40;;;;;;5053815;28;20187;-58
2022/01/05 01:00:04;;;;;;;3.55;1.30;;;17.30;56.40;;;;;;5054494;28;20191;-58
2022/01/05 01:02:29;;;;;;;2.45;1.05;;;17.30;56.30;;;;;;5054392;28;20183;-58
2022/01/05 01:04:55;;;;;;;2.67;1.20;;;17.30;56.30;;;;;;5053785;28;20204;-58
2022/01/05 01:07:20;;;;;;;2.25;1.15;;;17.30;56.30;;;;;;5053906;28;20565;-58
2022/01/05 01:09:46;;;;;;;4.50;1.27;;;17.30;56.20;;;;;;5053608;28;20178;-59
2022/01/05 01:12:11;;;;;;;2.28;1.05;;;17.20;56.20;;;;;;5054415;28;20566;-59
2022/01/05 01:14:37;;;;;;;2.60;1.10;;;17.20;56.20;;;;;;5054146;28;20175;-59
2022/01/05 01:17:02;;;;;;;1.95;1.02;;;17.20;56.10;;;;;;5053137;28;20761;-58
2022/01/05 01:19:28;;;;;;;2.70;1.33;;;17.20;56.20;;;;;;5053974;28;20178;-58
2022/01/05 01:21:54;;;;;;;1.90;1.17;;;17.20;56.10;;;;;;5054230;28;20643;-58
2022/01/05 01:24:19;;;;;;;1.75;1.00;;;17.20;56.10;;;;;;5052617;28;20707;-58
2022/01/05 01:26:45;;;;;;;1.90;1.20;;;17.20;56.00;;;;;;5054006;28;20658;-58
2022/01/05 01:29:10;;;;;;;3.35;1.23;;;17.10;56.00;;;;;;5053591;28;20693;-57
2022/01/05 01:31:36;;;;;;;1.73;1.00;;;17.20;56.00;;;;;;5052997;28;20207;-57
2022/01/05 01:34:01;;;;;;;2.63;1.40;;;17.10;55.90;;;;;;5054084;28;20626;-56
2022/01/05 01:36:27;;;;;;;2.63;1.17;;;17.10;55.90;;;;;;5053710;28;20183;-55
2022/01/05 01:38:52;;;;;;;2.70;1.27;;;17.10;56.00;;;;;;5053208;28;20647;-57
2022/01/05 01:41:20;;;;;;;2.92;1.10;;;17.10;55.90;;;;;;5054186;28;20266;-58
2022/01/05 01:43:46;;;;;;;2.13;1.33;;;17.10;55.90;;;;;;5053746;28;20598;-58
2022/01/05 01:46:11;;;;;;;2.78;1.27;;;17.10;55.80;;;;;;5053287;28;20266;-59
2022/01/05 01:48:40;;;;;;;2.45;1.10;;;17.10;55.80;;;;;;5053441;28;20210;-59
2022/01/05 01:51:05;;;;;;;1.85;1.17;;;17.10;55.70;;;;;;5053735;28;20223;-59
2022/01/05 01:53:31;;;;;;;1.67;0.90;;;17.00;55.70;;;;;;5052490;28;20212;-56
2022/01/05 01:55:58;;;;;;;2.20;1.20;;;17.10;55.70;;;;;;5053821;28;20206;-59
2022/01/05 01:58:25;;;;;;;2.22;1.27;;;17.00;55.70;;;;;;5053562;28;20313;-58
2022/01/05 02:00:50;;;;;;;1.92;1.25;;;17.00;55.70;;;;;;5051754;28;20171;-58
2022/01/05 02:03:16;;;;;;;2.42;1.27;;;17.00;55.70;;;;;;5053506;28;20187;-57
2022/01/05 02:05:42;;;;;;;2.47;1.10;;;17.00;55.80;;;;;;5053086;28;20172;-58
2022/01/05 02:08:07;;;;;;;2.30;1.50;;;17.00;55.70;;;;;;5052949;28;20264;-58
2022/01/05 02:10:33;;;;;;;2.50;1.40;;;17.00;55.80;;;;;;5053229;28;20185;-59
2022/01/05 02:12:58;;;;;;;4.00;1.02;;;17.00;55.70;;;;;;5053411;28;20183;-59
2022/01/05 02:15:24;;;;;;;2.40;1.27;;;17.00;55.70;;;;;;5052511;28;20178;-59
2022/01/05 02:20:29;;;;;;;1.70;0.98;;;16.90;55.60;;;;;;5052190;28;20182;-58
2022/01/05 02:22:54;;;;;;;3.15;1.27;;;16.90;55.60;;;;;;5053273;28;20187;-58
2022/01/05 02:25:23;;;;;;;1.77;1.00;;;16.90;55.60;;;;;;5052852;28;20183;-58
2022/01/05 02:27:49;;;;;;;2.13;0.98;;;16.90;55.60;;;;;;5052406;28;20306;-57
2022/01/05 02:30:22;;;;;;;2.45;1.00;;;16.90;55.50;;;;;;5053116;28;20237;-58
2022/01/05 02:32:48;;;;;;;3.10;1.00;;;17.00;55.50;;;;;;5052863;28;20724;-57
2022/01/05 02:35:14;;;;;;;3.00;1.40;;;16.90;55.50;;;;;;5052016;28;20187;-59
2022/01/05 02:37:47;;;;;;;2.30;1.00;;;16.90;55.50;;;;;;5052191;28;20263;-59
2022/01/05 02:40:14;;;;;;;3.72;1.30;;;16.90;55.50;;;;;;5052994;28;20237;-59
2022/01/05 02:42:43;;;;;;;2.00;1.02;;;16.80;55.40;;;;;;5051637;28;20228;-59
2022/01/05 02:45:11;;;;;;;2.10;1.20;;;16.90;55.50;;;;;;5052590;28;20172;-59
2022/01/05 02:47:37;;;;;;;2.40;1.17;;;16.80;55.40;;;;;;5052156;28;20211;-59
2022/01/05 02:50:03;;;;;;;2.50;1.33;;;16.80;55.50;;;;;;5051516;28;20393;-58
2022/01/05 02:52:29;;;;;;;2.10;1.05;;;16.80;55.50;;;;;;5052369;28;20187;-59
2022/01/05 02:54:54;;;;;;;2.38;1.05;;;16.80;55.50;;;;;;5052575;28;20178;-58
2022/01/05 02:57:20;;;;;;;2.75;1.10;;;16.80;55.60;;;;;;5051508;28;20175;-58
2022/01/05 02:59:45;;;;;;;1.95;1.05;;;16.80;55.50;;;;;;5052419;28;20178;-58
2022/01/05 03:02:11;;;;;;;2.40;1.20;;;16.80;55.50;;;;;;5052175;28;20202;-57
2022/01/05 03:04:39;;;;;;;1.92;1.40;;;16.80;55.50;;;;;;5051462;28;20646;-58
2022/01/05 03:07:05;;;;;;;3.20;1.20;;;16.80;55.50;;;;;;5052387;28;20680;-58
2022/01/05 03:09:30;;;;;;;2.85;1.23;;;16.80;55.50;;;;;;5051487;28;20262;-58
2022/01/05 03:11:56;;;;;;;2.38;1.10;;;16.70;55.50;;;;;;5052256;28;20512;-58
2022/01/05 03:14:21;;;;;;;2.55;1.05;;;16.80;55.40;;;;;;5051400;28;20210;-57
2022/01/05 03:16:47;;;;;;;3.00;1.15;;;16.70;55.30;;;;;;5051538;28;20630;-59
2022/01/05 03:19:13;;;;;;;1.60;1.08;;;16.70;55.30;;;;;;5052288;28;20175;-58
2022/01/05 03:21:38;;;;;;;2.97;1.60;;;16.70;55.30;;;;;;5051760;28;20179;-59
2022/01/05 03:24:04;;;;;;;2.35;1.52;;;16.70;55.20;;;;;;5051407;28;20182;-59
2022/01/05 03:26:29;;;;;;;2.97;1.38;;;16.70;55.20;;;;;;5051498;28;20604;-59
2022/01/05 03:28:55;;;;;;;4.68;1.73;;;16.70;55.20;;;;;;5051897;28;20215;-58
2022/01/05 03:31:20;;;;;;;3.85;1.90;;;16.70;55.20;;;;;;5050775;28;20190;-59
2022/01/05 03:33:46;;;;;;;2.53;1.17;;;16.70;55.20;;;;;;5052032;28;20178;-58
2022/01/05 03:36:11;;;;;;;2.60;1.20;;;16.60;55.20;;;;;;5052044;28;20171;-58
2022/01/05 03:38:37;;;;;;;1.95;1.15;;;16.70;55.20;;;;;;5050821;28;20175;-58
2022/01/05 03:41:02;;;;;;;3.97;1.30;;;16.70;55.20;;;;;;5051881;28;20175;-58
2022/01/05 03:43:28;;;;;;;2.63;1.48;;;16.60;55.20;;;;;;5051355;28;20556;-59
2022/01/05 03:45:53;;;;;;;3.30;1.10;;;16.60;55.00;;;;;;5050968;28;20668;-58
2022/01/05 03:48:19;;;;;;;2.45;1.30;;;16.60;55.10;;;;;;5051063;28;20207;-59
2022/01/05 03:50:45;;;;;;;2.35;1.05;;;16.60;55.10;;;;;;5051545;28;20230;-58
2022/01/05 03:53:11;;;;;;;2.70;1.50;;;16.60;55.00;;;;;;5050993;28;20171;-58
2022/01/05 03:55:37;;;;;;;4.60;1.42;;;16.60;55.10;;;;;;5051250;28;20244;-58
2022/01/05 03:58:03;;;;;;;3.28;1.45;;;16.60;55.10;;;;;;5051428;28;20221;-58
2022/01/05 04:00:29;;;;;;;3.00;1.33;;;16.60;55.10;;;;;;5050448;28;20171;-58
2022/01/05 04:02:56;;;;;;;4.18;1.30;;;16.60;55.10;;;;;;5051793;28;20179;-59
2022/01/05 04:05:24;;;;;;;2.42;1.35;;;16.60;55.00;;;;;;5051276;28;20175;-59
2022/01/05 04:07:50;;;;;;;2.15;1.42;;;16.60;55.00;;;;;;5050906;28;20210;-57
2022/01/05 04:10:16;;;;;;;2.20;1.35;;;16.60;55.00;;;;;;5051515;28;20170;-58
2022/01/05 04:12:41;;;;;;;1.92;1.40;;;16.50;55.00;;;;;;5050534;28;20233;-58
2022/01/05 04:15:07;;;;;;;3.28;1.25;;;16.60;55.00;;;;;;5051336;28;20598;-60
2022/01/05 04:17:33;;;;;;;2.42;1.17;;;16.60;55.00;;;;;;5051010;28;20261;-59
2022/01/05 04:19:58;;;;;;;2.30;1.33;;;16.50;55.10;;;;;;5050794;28;20171;-59
2022/01/05 04:22:24;;;;;;;2.90;1.33;;;16.50;55.00;;;;;;5051374;28;20178;-59
2022/01/05 04:24:49;;;;;;;3.75;1.52;;;16.50;55.00;;;;;;5051152;28;20181;-59
2022/01/05 04:27:15;;;;;;;2.28;1.30;;;16.50;55.10;;;;;;5050628;28;20211;-59
2022/01/05 04:29:41;;;;;;;2.75;1.50;;;16.50;55.10;;;;;;5050891;28;20194;-60
2022/01/05 04:32:07;;;;;;;2.20;1.20;;;16.50;55.00;;;;;;5051295;28;20607;-59
2022/01/05 04:34:32;;;;;;;1.75;1.20;;;16.50;55.10;;;;;;5050313;28;20179;-58
2022/01/05 04:36:58;;;;;;;2.53;1.60;;;16.40;55.20;;;;;;5051421;28;20225;-58
2022/01/05 04:39:23;;;;;;;3.22;1.30;;;16.50;55.00;;;;;;5051044;28;20175;-59
2022/01/05 04:41:49;;;;;;;2.53;1.38;;;16.50;55.00;;;;;;5050398;28;20171;-57
2022/01/05 04:44:14;;;;;;;3.08;1.30;;;16.40;55.00;;;;;;5050977;28;20274;-59
2022/01/05 04:46:40;;;;;;;4.72;1.55;;;16.50;55.00;;;;;;5050803;28;20529;-59
2022/01/05 04:49:05;;;;;;;4.30;1.30;;;16.40;54.90;;;;;;5050410;28;20405;-58
2022/01/05 04:51:31;;;;;;;3.35;1.50;;;16.40;55.00;;;;;;5050767;28;20223;-59
2022/01/05 04:53:56;;;;;;;3.03;1.55;;;16.40;54.90;;;;;;5051118;28;20167;-59
2022/01/05 04:56:22;;;;;;;3.97;1.42;;;16.40;55.00;;;;;;5050048;28;20502;-59
2022/01/05 04:58:47;;;;;;;3.65;1.50;;;16.40;54.90;;;;;;5051039;28;20187;-59
2022/01/05 05:01:14;;;;;;;3.28;1.27;;;16.40;54.90;;;;;;5054304;28;20606;-58
2022/01/05 05:03:39;;;;;;;2.40;1.42;;;16.40;54.90;;;;;;5053655;28;20261;-57
2022/01/05 05:06:05;;;;;;;4.47;1.67;;;16.40;54.90;;;;;;5054579;28;20172;-58
2022/01/05 05:08:30;;;;;;;2.53;1.27;;;16.40;55.30;;;;;;5053944;28;20689;-58
2022/01/05 05:10:56;;;;;;;2.55;1.63;;;16.40;54.90;;;;;;5053821;28;20182;-59
2022/01/05 05:13:21;;;;;;;4.45;1.83;;;16.40;55.00;;;;;;5054057;28;20175;-59
2022/01/05 05:15:47;;;;;;;4.07;1.67;;;16.30;54.90;;;;;;5054385;28;20171;-58
2022/01/05 05:18:12;;;;;;;2.92;1.65;;;16.30;54.80;;;;;;5053834;28;20637;-58
2022/01/05 05:20:38;;;;;;;3.67;1.45;;;16.30;55.00;;;;;;5054070;28;20210;-58
2022/01/05 05:23:03;;;;;;;2.65;1.30;;;16.30;55.00;;;;;;5053611;28;20194;-59
2022/01/05 05:25:29;;;;;;;2.05;1.23;;;16.30;55.00;;;;;;5053879;28;20533;-58
2022/01/05 05:27:54;;;;;;;2.45;1.30;;;16.30;55.10;;;;;;5054163;28;20199;-58
2022/01/05 05:30:20;;;;;;;2.78;1.45;;;16.30;55.00;;;;;;5053037;28;20578;-58
2022/01/05 05:32:46;;;;;;;4.35;1.42;;;16.30;55.00;;;;;;5053939;28;20274;-58
2022/01/05 05:35:11;;;;;;;2.85;1.15;;;16.20;54.90;;;;;;5053944;28;20178;-58
2022/01/05 05:37:36;;;;;;;3.75;1.55;;;16.30;54.90;;;;;;5052831;28;20586;-58
2022/01/05 05:40:03;;;;;;;2.22;1.23;;;16.30;55.20;;;;;;5053857;28;20197;-57
2022/01/05 05:42:29;;;;;;;4.50;1.60;;;16.30;55.10;;;;;;5053299;28;20560;-58
2022/01/05 05:44:54;;;;;;;3.45;1.60;;;16.20;54.90;;;;;;5053003;28;20258;-58
2022/01/05 05:47:20;;;;;;;2.45;1.50;;;16.20;54.90;;;;;;5053594;28;20215;-59
2022/01/05 05:49:46;;;;;;;2.53;1.50;;;16.20;54.90;;;;;;5053574;28;20171;-58
2022/01/05 05:52:12;;;;;;;2.10;1.30;;;16.30;55.00;;;;;;5052767;28;20649;-58
2022/01/05 05:54:38;;;;;;;2.95;1.45;;;16.30;55.00;;;;;;5053371;28;20190;-58
2022/01/05 05:57:04;;;;;;;2.50;1.35;;;16.20;55.00;;;;;;5053875;28;20175;-59
2022/01/05 05:59:29;;;;;;;3.33;1.70;;;16.20;54.80;;;;;;5052491;28;20186;-56
2022/01/05 06:01:58;;;;;;;3.83;1.55;;;16.20;54.80;;;;;;5053421;28;20608;-58
2022/01/05 06:04:23;;;;;;;2.50;1.50;;;16.20;54.80;;;;;;5053172;28;20676;-57
2022/01/05 06:06:49;;;;;;;2.58;1.50;;;16.20;54.70;;;;;;5052765;28;20183;-58
2022/01/05 06:09:14;;;;;;;4.13;2.03;;;16.20;54.80;;;;;;5053301;28;20214;-58
2022/01/05 06:11:40;;;;;;;3.45;1.35;;;16.20;54.80;;;;;;5052895;28;20221;-58
2022/01/05 06:14:05;;;;;;;3.38;1.30;;;16.20;54.70;;;;;;5052975;28;20583;-57
2022/01/05 06:16:31;;;;;;;4.72;1.70;;;16.10;54.90;;;;;;5053096;28;20170;-57
2022/01/05 06:18:56;;;;;;;3.95;1.60;;;16.10;55.20;;;;;;5053290;28;20227;-58
2022/01/05 06:21:22;;;;;;;3.88;1.83;;;16.10;54.80;;;;;;5052276;28;20171;-59
2022/01/05 06:23:47;;;;;;;3.47;1.70;;;16.20;55.00;;;;;;5053022;28;20186;-58
2022/01/05 06:26:13;;;;;;;3.15;1.30;;;16.10;54.80;;;;;;5052654;28;20175;-58
2022/01/05 06:28:38;;;;;;;4.88;1.67;;;16.10;54.90;;;;;;5052051;28;21053;-57
2022/01/05 06:31:04;;;;;;;3.28;1.70;;;16.10;54.80;;;;;;5053111;28;20175;-58
2022/01/05 06:33:29;;;;;;;4.97;1.83;;;16.10;55.00;;;;;;5052056;28;20179;-57
2022/01/05 06:35:55;;;;;;;3.88;1.80;;;16.10;54.80;;;;;;5052927;28;20179;-57
2022/01/05 06:38:20;;;;;;;4.50;2.30;;;16.10;55.00;;;;;;5052578;28;20181;-57
2022/01/05 06:40:46;;;;;;;4.25;1.77;;;16.10;55.00;;;;;;5052073;28;20171;-57
2022/01/05 06:43:12;;;;;;;4.47;1.80;;;16.10;55.00;;;;;;5052443;28;20201;-58
2022/01/05 06:45:37;;;;;;;4.75;1.60;;;16.10;54.90;;;;;;5052663;28;20220;-58
2022/01/05 06:48:03;;;;;;;4.03;1.70;;;16.10;54.90;;;;;;5052137;28;20309;-60
2022/01/05 06:50:28;;;;;;;4.40;1.67;;;16.00;54.80;;;;;;5052112;28;20310;-58
2022/01/05 06:52:55;;;;;;;3.63;1.75;;;16.00;54.70;;;;;;5052928;28;20178;-56
2022/01/05 06:55:21;;;;;;;4.05;1.50;;;16.00;54.90;;;;;;5051580;28;20189;-59
2022/01/05 06:57:47;;;;;;;3.78;1.85;;;16.00;55.20;;;;;;5052347;28;20488;-57
2022/01/05 07:00:13;;;;;;;4.00;1.85;;;16.00;55.20;;;;;;5052553;28;20171;-58
2022/01/05 07:02:38;;;;;;;5.00;2.05;;;16.00;55.30;;;;;;5051514;28;20213;-58
2022/01/05 07:05:05;;;;;;;2.55;1.65;;;16.00;55.50;;;;;;5052467;28;20171;-58
2022/01/05 07:07:30;;;;;;;3.50;1.65;;;16.10;55.30;;;;;;5052005;28;20210;-56
2022/01/05 07:09:56;;;;;;;3.03;1.67;;;16.10;55.20;;;;;;5051476;28;20175;-57
2022/01/05 07:12:24;;;;;;;2.38;1.30;;;16.20;55.30;;;;;;5051850;28;20258;-58
2022/01/05 07:14:50;;;;;;;3.53;2.08;;;16.20;55.10;;;;;;5052197;28;20515;-59
2022/01/05 07:17:15;;;;;;;4.55;1.80;;;16.30;55.00;;;;;;5051566;28;20178;-58
2022/01/05 07:19:41;;;;;;;3.90;1.50;;;16.30;55.00;;;;;;5051708;28;20661;-58
2022/01/05 07:22:06;;;;;;;2.22;1.33;;;16.40;55.00;;;;;;5051759;28;20171;-57
2022/01/05 07:24:32;;;;;;;2.50;1.58;;;16.40;54.90;;;;;;5051129;28;20216;-58
2022/01/05 07:26:57;;;;;;;2.78;1.75;;;16.50;55.00;;;;;;5052038;28;20187;-58
2022/01/05 07:29:23;;;;;;;3.15;1.60;;;16.50;54.90;;;;;;5051830;28;20260;-58
2022/01/05 07:31:48;;;;;;;2.45;1.38;;;16.60;54.80;;;;;;5051241;28;20590;-58
2022/01/05 07:34:14;;;;;;;2.83;1.63;;;16.70;54.90;;;;;;5051927;28;20171;-56
2022/01/05 07:36:39;;;;;;;3.17;1.90;;;16.90;54.70;;;;;;5050721;28;20171;-58
2022/01/05 07:39:05;;;;;;;3.38;1.48;;;17.10;54.40;;;;;;5051744;28;20645;-58
2022/01/05 07:41:32;;;;;;;3.58;1.75;;;17.20;54.30;;;;;;5051296;28;20175;-58
2022/01/05 07:43:57;;;;;;;3.03;1.40;;;17.40;53.90;;;;;;5051384;28;20857;-58
2022/01/05 07:46:23;;;;;;;7.40;2.05;;;17.60;53.50;;;;;;5051636;28;20652;-58
2022/01/05 07:48:48;;;;;;;3.17;1.65;;;17.90;53.20;;;;;;5051758;28;20642;-58
2022/01/05 07:51:14;;;;;;;3.85;1.60;;;18.00;52.80;;;;;;5050940;28;20314;-58
2022/01/05 07:53:39;;;;;;;2.33;1.50;;;18.10;52.70;;;;;;5051588;28;20182;-57
2022/01/05 07:56:05;;;;;;;5.28;1.88;;;18.10;52.80;;;;;;5051320;28;20200;-58
2022/01/05 07:58:30;;;;;;;2.20;1.05;;;18.10;52.60;;;;;;5050472;28;20179;-57
2022/01/05 08:00:56;;;;;;;2.97;1.77;;;18.20;52.60;;;;;;5051418;28;20179;-58
2022/01/05 08:03:21;;;;;;;2.75;1.65;;;18.10;52.70;;;;;;5051336;28;20186;-58
2022/01/05 08:05:50;;;;;;;4.07;1.45;;;18.20;52.70;;;;;;5050821;28;20634;-56
2022/01/05 08:08:16;;;;;;;3.45;1.30;;;18.20;52.70;;;;;;5051346;28;20211;-59
2022/01/05 08:10:41;;;;;;;3.65;1.58;;;18.20;52.80;;;;;;5051084;28;20171;-59
2022/01/05 08:13:07;;;;;;;4.25;2.03;;;18.10;52.80;;;;;;5051027;28;20182;-59
2022/01/05 08:15:32;;;;;;;2.85;1.52;;;18.10;52.90;;;;;;5051124;28;20172;-59
2022/01/05 08:17:58;;;;;;;2.67;1.55;;;18.00;53.10;;;;;;5051581;28;20221;-59
2022/01/05 08:20:23;;;;;;;2.28;1.40;;;18.00;53.30;;;;;;5050403;28;20225;-59
2022/01/05 08:22:49;;;;;;;4.30;1.45;;;17.90;53.30;;;;;;5051274;28;20486;-59
2022/01/05 08:25:16;;;;;;;2.80;1.42;;;17.90;53.30;;;;;;5051319;28;20178;-60
2022/01/05 08:27:46;;;;;;;2.35;1.23;;;17.90;53.40;;;;;;5050456;28;20272;-58
2022/01/05 08:30:16;;;;;;;3.33;1.50;;;18.00;53.30;;;;;;5051430;28;20217;-60
2022/01/05 08:32:42;;;;;;;3.78;2.10;;;18.00;53.30;;;;;;5051008;28;20167;-60
2022/01/05 08:35:08;;;;;;;4.13;1.40;;;18.00;53.50;;;;;;5052122;28;20212;-61
2022/01/05 08:37:33;;;;;;;5.40;1.65;;;18.10;53.50;;;;;;5054521;28;20191;-62
2022/01/05 08:39:59;;;;;;;2.03;1.30;;;18.10;53.40;;;;;;5054073;28;20603;-61
2022/01/05 08:42:24;;;;;;;3.83;1.42;;;18.20;53.40;;;;;;5054365;28;20232;-61
2022/01/05 08:44:50;;;;;;;3.45;1.40;;;18.20;53.50;;;;;;5054823;28;20229;-61
2022/01/05 08:47:15;;;;;;;3.28;1.63;;;18.20;53.50;;;;;;5054354;28;20179;-61
2022/01/05 08:49:41;;;;;;;4.63;2.17;;;18.20;53.50;;;;;;5053842;28;20405;-61
2022/01/05 08:52:07;;;;;;;3.78;1.88;;;18.30;53.90;;;;;;5054412;28;20227;-61
2022/01/05 08:54:32;;;;;;;3.95;1.70;;;18.30;53.80;;;;;;5053822;28;20209;-61
2022/01/05 08:56:58;;;;;;;3.78;1.77;;;18.40;53.80;;;;;;5054808;28;20606;-62
2022/01/05 08:59:23;;;;;;;3.95;1.95;;;18.30;53.80;;;;;;5054255;28;20529;-61
2022/01/05 09:01:49;;;;;;;4.15;1.67;;;18.40;53.80;;;;;;5053672;28;20212;-62
2022/01/05 09:04:14;;;;;;;3.95;1.48;;;18.30;53.80;;;;;;5055069;28;20171;-61
2022/01/05 09:06:40;;;;;;;5.32;1.60;;;18.40;53.80;;;;;;5054051;28;20590;-61
2022/01/05 09:09:06;;;;;;;4.15;1.73;;;18.40;53.80;;;;;;5053454;28;20214;-61
2022/01/05 09:11:31;;;;;;;6.00;1.95;;;18.30;53.90;;;;;;5054333;28;20228;-61
2022/01/05 09:13:57;;;;;;;5.15;1.70;;;18.30;53.90;;;;;;5053982;28;20186;-61
2022/01/05 09:16:22;;;;;;;3.28;1.40;;;18.30;53.90;;;;;;5053036;28;20194;-60
2022/01/05 09:18:49;;;;;;;5.07;1.90;;;18.30;53.90;;;;;;5054032;28;20183;-61
2022/01/05 09:21:15;;;;;;;7.07;1.90;;;18.30;53.90;;;;;;5053898;28;20171;-61
2022/01/05 09:23:40;;;;;;;4.65;1.77;;;18.30;53.90;;;;;;5052937;28;20540;-61
2022/01/05 09:26:06;;;;;;;2.38;1.52;;;18.30;54.00;;;;;;5054017;28;20171;-61
2022/01/05 09:28:31;;;;;;;2.67;1.40;;;18.30;53.90;;;;;;5053697;28;20215;-61
2022/01/05 09:30:57;;;;;;;3.72;1.88;;;18.30;54.00;;;;;;5053321;28;20163;-62
2022/01/05 09:33:23;;;;;;;4.40;1.88;;;18.20;54.00;;;;;;5053453;28;20198;-62
2022/01/05 09:35:49;;;;;;;6.03;1.70;;;18.20;54.00;;;;;;5053897;28;20202;-61
2022/01/05 09:43:55;;;;;;;2.58;1.88;;;18.10;54.90;;;;;;5051854;28;20679;-61
2022/01/05 09:46:30;;;;;;;5.97;1.85;;;18.00;54.70;;;;;;5052674;28;20278;-62
2022/01/05 09:49:02;;;;;;;4.57;1.33;;;18.00;54.80;;;;;;5053509;28;20229;-61
2022/01/05 09:51:30;;;;;;;4.80;1.52;;;18.00;54.90;;;;;;5052158;28;20229;-61
2022/01/05 09:53:55;;;;;;;3.28;1.55;;;18.00;54.90;;;;;;5053478;28;20178;-61
2022/01/05 09:56:21;;;;;;;5.22;1.65;;;18.00;55.50;;;;;;5052388;28;20167;-61
2022/01/05 09:58:46;;;;;;;4.22;1.60;;;18.00;54.90;;;;;;5052659;28;20201;-67
2022/01/05 10:01:12;;;;;;;4.68;1.98;;;18.10;55.00;;;;;;5053283;28;20174;-61
2022/01/05 10:03:37;;;;;;;4.75;1.75;;;18.10;54.90;;;;;;5051837;28;20175;-61
2022/01/05 10:06:03;;;;;;;3.00;1.48;;;18.10;55.00;;;;;;5052718;28;20174;-60
2022/01/05 10:08:28;;;;;;;2.90;1.70;;;18.10;54.90;;;;;;5052465;28;20211;-60
2022/01/05 10:10:54;;;;;;;2.88;1.40;;;18.00;54.90;;;;;;5053070;28;20163;-61
2022/01/05 10:13:20;;;;;;;4.47;1.67;;;18.00;54.90;;;;;;5052061;28;20583;-60
2022/01/05 10:15:45;;;;;;;3.35;1.40;;;18.00;55.00;;;;;;5052852;28;20262;-61
2022/01/05 10:18:18;;;;;;;3.45;1.75;;;17.90;55.10;;;;;;5051942;28;20206;-61
2022/01/05 10:20:57;;;;;;;2.95;1.77;;;17.90;55.20;;;;;;5052645;28;20181;-60
2022/01/05 10:23:36;;;;;;;3.95;1.50;;;17.80;55.30;;;;;;5052566;28;20179;-61
2022/01/05 10:26:21;;;;;;;3.55;1.42;;;17.80;55.40;;;;;;5052060;28;20179;-61
2022/01/05 10:28:47;;;;;;;3.88;1.60;;;17.90;55.50;;;;;;5052743;28;20214;-61
2022/01/05 10:31:17;;;;;;;3.63;1.25;;;17.90;55.50;;;;;;5052137;28;20265;-62
2022/01/05 10:33:43;;;;;;;3.00;1.40;;;17.90;55.40;;;;;;5051134;28;20257;-62
2022/01/05 10:36:08;;;;;;;4.85;1.77;;;17.90;55.30;;;;;;5051890;28;20594;-61
2022/01/05 10:38:34;;;;;;;3.63;1.17;;;17.90;55.30;;;;;;5051593;28;20175;-62
2022/01/05 10:41:19;;;;;;;2.80;1.55;;;18.00;55.30;;;;;;5051304;28;20529;-60
2022/01/05 10:44:06;;;;;;;4.22;1.63;;;18.00;55.20;;;;;;5051677;28;20180;-60
2022/01/05 10:46:35;;;;;;;3.58;1.90;;;17.90;55.20;;;;;;5049037;28;20183;-61
2022/01/05 10:49:03;;;;;;;2.53;1.33;;;17.90;55.30;;;;;;5051917;28;20203;-61
2022/01/05 10:51:35;;;;;;;2.67;1.13;;;17.80;55.30;;;;;;5051583;28;20256;-62
2022/01/05 10:54:14;;;;;;;5.05;2.10;;;17.80;55.40;;;;;;5051324;28;20194;-66
2022/01/05 10:56:40;;;;;;;5.10;1.27;;;17.80;55.60;;;;;;5048846;28;20183;-65
2022/01/05 10:59:05;;;;;;;5.38;1.83;;;17.80;55.70;;;;;;5051777;28;20178;-67
2022/01/05 11:01:31;;;;;;;3.25;1.30;;;17.80;55.70;;;;;;5049930;28;20649;-64
2022/01/05 11:03:57;;;;;;;4.72;1.80;;;17.80;55.80;;;;;;5052154;28;20185;-61
2022/01/05 11:06:23;;;;;;;4.72;1.80;;;17.80;55.90;;;;;;5050828;28;20630;-61
2022/01/05 11:09:00;;;;;;;4.82;1.67;;;17.80;55.80;;;;;;5051334;28;20219;-59
2022/01/05 11:11:32;;;;;;;4.60;2.45;;;17.90;55.80;;;;;;5051627;28;20208;-60
2022/01/05 11:13:58;;;;;;;7.68;1.50;;;17.90;55.80;;;;;;5051742;28;20195;-61
2022/01/05 11:16:27;;;;;;;4.30;1.75;;;17.90;55.80;;;;;;5050846;28;20202;-61
2022/01/05 11:19:14;;;;;;;3.67;1.70;;;17.90;55.90;;;;;;5051697;28;20179;-61
2022/01/05 11:21:55;;;;;;;4.32;1.38;;;17.80;55.90;;;;;;5050718;28;20477;-61
2022/01/05 11:24:21;;;;;;;3.50;1.77;;;17.80;56.00;;;;;;5051265;28;20236;-62
2022/01/05 11:26:46;;;;;;;5.63;1.50;;;17.80;56.00;;;;;;5051809;28;20179;-62
2022/01/05 11:29:12;;;;;;;2.00;1.13;;;17.80;56.10;;;;;;5050685;28;20357;-62
2022/01/05 11:31:38;;;;;;;4.18;1.55;;;17.80;56.00;;;;;;5051243;28;20770;-62
2022/01/05 11:34:03;;;;;;;1.88;1.40;;;17.90;56.00;;;;;;5050316;28;20648;-62
2022/01/05 11:36:29;;;;;;;3.47;1.38;;;17.90;56.00;;;;;;5049344;28;20263;-63
2022/01/05 11:38:54;;;;;;;3.70;1.45;;;18.00;55.90;;;;;;5051356;28;20633;-63
2022/01/05 11:41:20;;;;;;;3.00;1.52;;;18.00;55.80;;;;;;5051373;28;20190;-63
2022/01/05 11:43:46;;;;;;;4.10;1.70;;;17.90;55.80;;;;;;5051139;28;20211;-62
2022/01/05 11:46:16;;;;;;;2.58;1.20;;;17.90;55.80;;;;;;5049387;28;20179;-62
2022/01/05 11:48:57;;;;;;;3.47;1.60;;;17.90;55.80;;;;;;5050908;28;20203;-61
2022/01/05 11:51:49;;;;;;;3.92;1.95;;;17.90;55.90;;;;;;5048768;28;20230;-61
2022/01/05 11:54:19;;;;;;;3.20;1.70;;;17.90;56.00;;;;;;5051197;28;20197;-60
2022/01/05 11:56:51;;;;;;;3.03;1.30;;;17.90;56.00;;;;;;5051419;28;20581;-59
2022/01/05 11:59:36;;;;;;;3.67;1.45;;;17.90;56.00;;;;;;5051487;28;20274;-60
2022/01/05 12:02:17;;;;;;;6.68;2.08;;;17.90;56.10;;;;;;5051306;28;20256;-61
2022/01/05 12:04:53;;;;;;;4.68;1.77;;;17.80;56.20;;;;;;5050055;28;20606;-61
2022/01/05 12:07:45;;;;;;;2.38;1.58;;;17.90;56.20;;;;;;5051285;28;20186;-61
2022/01/05 12:10:21;;;;;;;2.95;1.50;;;17.90;56.10;;;;;;5054791;28;20178;-61
2022/01/05 12:12:58;;;;;;;1.90;1.42;;;17.90;56.10;;;;;;5054869;28;20181;-61
2022/01/05 12:15:38;;;;;;;1.90;1.27;;;17.90;56.10;;;;;;5055005;28;20178;-61
2022/01/05 12:18:04;;;;;;;3.90;1.70;;;17.90;56.10;;;;;;5054380;28;20166;-59
2022/01/05 12:20:37;;;;;;;1.95;1.55;;;17.90;56.10;;;;;;5053431;28;20178;-61
2022/01/05 12:23:24;;;;;;;3.83;1.40;;;17.90;56.10;;;;;;5055241;28;20190;-64
2022/01/05 12:26:08;;;;;;;4.28;1.52;;;17.90;56.20;;;;;;5054291;28;20665;-61
2022/01/05 12:28:40;;;;;;;3.28;1.70;;;17.90;56.30;;;;;;5054542;28;20498;-63
2022/01/05 12:31:06;;;;;;;4.80;1.35;;;17.90;56.50;;;;;;5054833;28;20206;-61
2022/01/05 12:33:45;;;;;;;5.40;2.05;;;17.90;56.30;;;;;;5053770;28;20596;-61
2022/01/05 12:36:10;;;;;;;3.70;1.45;;;17.90;56.30;;;;;;5055013;28;20209;-62
2022/01/05 12:38:41;;;;;;;4.50;1.52;;;17.90;56.30;;;;;;5054729;28;20167;-62
2022/01/05 12:41:32;;;;;;;3.63;1.67;;;17.90;56.30;;;;;;5054257;28;20179;-63
2022/01/05 12:44:18;;;;;;;4.68;1.42;;;17.90;56.40;;;;;;5054511;28;20704;-61
2022/01/05 12:46:49;;;;;;;5.18;1.55;;;17.90;56.30;;;;;;5050122;28;20179;-62
2022/01/05 12:49:29;;;;;;;3.92;1.75;;;17.80;56.40;;;;;;5054541;28;20298;-61
2022/01/05 12:51:57;;;;;;;3.67;1.70;;;17.80;56.50;;;;;;5054297;28;20238;-61
2022/01/05 12:54:28;;;;;;;4.80;1.75;;;17.80;56.60;;;;;;5052024;28;20175;-60
2022/01/05 12:57:01;;;;;;;4.05;1.63;;;17.90;57.20;;;;;;5054470;28;20262;-61